McNatts, Indiana
Current Conditions -  °F | °C
As of 5:06 AM on Saturday 22 Nov 2014 (Local Time) from KMIE Reporting Station
Unknown Precip Unknown Precip  
Wind Chill: 28°   Ceiling: 4500
Heat Index: 36°   Visibility: 8mi
Dew Point: 29°   Wind: 13mph
Humidity: 76%   Direction: 190°S
Pressure: 30.2"   Gusts: NA
Location:  40.5457°N, 85.2546°W
Report Text: KMIE 221006Z AUTO 19011KT 8SM UP SCT021 SCT033 OVC045 02/M02 A3020 RMK AO2 RAE06UPB06 P0000 T00221017
Loading
Personal Weather Stations






























Interactive Weather Map New forecast layout! Learn more

10-Day Weather Forecast

Advertisements
Track Severe Weather on mobile